createdAt,value
2024-04-04T00:00:06.000Z,0
2024-04-04T00:01:07.000Z,0
2024-04-04T00:02:07.000Z,0
2024-04-04T00:03:08.000Z,0
2024-04-04T00:04:08.000Z,0
2024-04-04T00:05:09.000Z,0
2024-04-04T00:06:10.000Z,0
2024-04-04T00:07:10.000Z,0
2024-04-04T00:08:11.000Z,0
2024-04-04T00:09:12.000Z,0
2024-04-04T00:10:12.000Z,0
2024-04-04T00:11:13.000Z,0
2024-04-04T00:12:14.000Z,0
2024-04-04T00:13:14.000Z,0
2024-04-04T00:14:15.000Z,0
2024-04-04T00:15:16.000Z,0
2024-04-04T00:16:16.000Z,0
2024-04-04T00:17:17.000Z,0
2024-04-04T00:18:17.000Z,0
2024-04-04T00:19:18.000Z,0
2024-04-04T00:20:19.000Z,0
2024-04-04T00:21:19.000Z,0
2024-04-04T00:22:20.000Z,0
2024-04-04T00:23:21.000Z,0
2024-04-04T00:24:21.000Z,0
2024-04-04T00:25:22.000Z,0
2024-04-04T00:26:22.000Z,0
2024-04-04T00:27:23.000Z,0
2024-04-04T00:28:24.000Z,0
2024-04-04T00:29:24.000Z,0
2024-04-04T00:30:25.000Z,0
2024-04-04T00:31:25.000Z,0
2024-04-04T00:32:26.000Z,0
2024-04-04T00:33:27.000Z,0
2024-04-04T00:34:27.000Z,0
2024-04-04T00:35:28.000Z,0
2024-04-04T00:36:29.000Z,0
2024-04-04T00:37:29.000Z,0
2024-04-04T00:38:30.000Z,0
2024-04-04T00:39:30.000Z,0
2024-04-04T00:40:31.000Z,0
2024-04-04T00:41:32.000Z,0
2024-04-04T00:42:32.000Z,0
2024-04-04T00:43:33.000Z,0
2024-04-04T00:44:33.000Z,0
2024-04-04T00:45:34.000Z,0
2024-04-04T00:46:35.000Z,0
2024-04-04T00:47:35.000Z,0
2024-04-04T00:48:36.000Z,0
2024-04-04T00:49:37.000Z,0
2024-04-04T00:50:37.000Z,0
2024-04-04T00:51:38.000Z,0
2024-04-04T00:52:39.000Z,0
2024-04-04T00:53:39.000Z,0
2024-04-04T00:54:40.000Z,0
2024-04-04T00:55:41.000Z,0
2024-04-04T00:56:41.000Z,0
2024-04-04T00:57:42.000Z,0
2024-04-04T00:58:42.000Z,0
2024-04-04T00:59:43.000Z,0
2024-04-04T01:00:44.000Z,0
2024-04-04T01:01:44.000Z,0
2024-04-04T01:02:45.000Z,0
2024-04-04T01:03:45.000Z,0
2024-04-04T01:04:46.000Z,0
2024-04-04T01:05:47.000Z,0
2024-04-04T01:06:47.000Z,0
2024-04-04T01:07:48.000Z,0
2024-04-04T01:08:48.000Z,0
2024-04-04T01:09:49.000Z,0
2024-04-04T01:10:50.000Z,0
2024-04-04T01:11:50.000Z,0
2024-04-04T01:12:51.000Z,0
2024-04-04T01:13:52.000Z,0
2024-04-04T01:14:52.000Z,0
2024-04-04T01:15:53.000Z,0
2024-04-04T01:16:53.000Z,0
2024-04-04T01:17:54.000Z,0
2024-04-04T01:18:55.000Z,0
2024-04-04T01:19:55.000Z,0
2024-04-04T01:20:56.000Z,0
2024-04-04T01:21:57.000Z,0
2024-04-04T01:22:57.000Z,0
2024-04-04T01:23:58.000Z,0
2024-04-04T01:24:58.000Z,0
2024-04-04T01:25:59.000Z,0
2024-04-04T01:27:00.000Z,0
2024-04-04T01:28:00.000Z,0
2024-04-04T01:29:01.000Z,0
2024-04-04T01:30:02.000Z,0
2024-04-04T01:31:02.000Z,0
2024-04-04T01:32:03.000Z,0
2024-04-04T01:33:04.000Z,0
2024-04-04T01:34:04.000Z,0
2024-04-04T01:35:05.000Z,0
2024-04-04T01:36:05.000Z,0
2024-04-04T01:37:06.000Z,0
2024-04-04T01:38:07.000Z,0
2024-04-04T01:39:07.000Z,0
2024-04-04T01:40:08.000Z,0
2024-04-04T01:41:09.000Z,0
2024-04-04T01:42:09.000Z,0
2024-04-04T01:43:10.000Z,0
2024-04-04T01:44:11.000Z,0
2024-04-04T01:45:11.000Z,0
2024-04-04T01:46:12.000Z,0
2024-04-04T01:47:12.000Z,0
2024-04-04T01:48:13.000Z,0
2024-04-04T01:49:14.000Z,0
2024-04-04T01:50:14.000Z,0
2024-04-04T01:51:15.000Z,0
2024-04-04T01:52:16.000Z,0
2024-04-04T01:53:16.000Z,0
2024-04-04T01:54:17.000Z,0
2024-04-04T01:55:18.000Z,0
2024-04-04T01:56:18.000Z,0
2024-04-04T01:57:19.000Z,0
2024-04-04T01:58:19.000Z,0
2024-04-04T01:59:20.000Z,0
2024-04-04T02:00:21.000Z,0
2024-04-04T02:01:21.000Z,0
2024-04-04T02:02:22.000Z,0
2024-04-04T02:03:23.000Z,0
2024-04-04T02:04:23.000Z,0
2024-04-04T02:05:24.000Z,0
2024-04-04T02:06:25.000Z,0
2024-04-04T02:07:25.000Z,0
2024-04-04T02:08:26.000Z,0
2024-04-04T02:09:27.000Z,0
2024-04-04T02:10:27.000Z,0
2024-04-04T02:11:28.000Z,0
2024-04-04T02:12:28.000Z,0
2024-04-04T02:13:29.000Z,0
2024-04-04T02:14:30.000Z,0
2024-04-04T02:15:30.000Z,0
2024-04-04T02:16:31.000Z,0
2024-04-04T02:17:32.000Z,0
2024-04-04T02:18:32.000Z,0
2024-04-04T02:19:33.000Z,0
2024-04-04T02:20:33.000Z,0
2024-04-04T02:21:34.000Z,0
2024-04-04T02:22:35.000Z,0
2024-04-04T02:23:35.000Z,0
2024-04-04T02:24:36.000Z,0
2024-04-04T02:25:37.000Z,0
2024-04-04T02:26:37.000Z,0
2024-04-04T02:27:38.000Z,0
2024-04-04T02:28:39.000Z,0
2024-04-04T02:29:39.000Z,0
2024-04-04T02:30:40.000Z,0
2024-04-04T02:31:41.000Z,0
2024-04-04T02:32:41.000Z,0
2024-04-04T02:33:42.000Z,0
2024-04-04T02:34:42.000Z,0
2024-04-04T02:35:43.000Z,0
2024-04-04T02:36:44.000Z,0
2024-04-04T02:37:44.000Z,0
2024-04-04T02:38:45.000Z,0
2024-04-04T02:39:46.000Z,0
2024-04-04T02:40:46.000Z,0
2024-04-04T02:41:47.000Z,0
2024-04-04T02:42:48.000Z,0
2024-04-04T02:43:48.000Z,0
2024-04-04T02:44:49.000Z,0
2024-04-04T02:45:50.000Z,0
2024-04-04T02:46:50.000Z,0
2024-04-04T02:47:51.000Z,0
2024-04-04T02:48:52.000Z,0
2024-04-04T02:49:52.000Z,0
2024-04-04T02:50:53.000Z,0
2024-04-04T02:51:53.000Z,0
2024-04-04T02:52:54.000Z,0
2024-04-04T02:53:55.000Z,0
2024-04-04T02:54:55.000Z,0
2024-04-04T02:55:56.000Z,0
2024-04-04T02:56:57.000Z,0
2024-04-04T02:57:57.000Z,0
2024-04-04T02:58:58.000Z,0
2024-04-04T02:59:58.000Z,0
2024-04-04T03:00:59.000Z,0
2024-04-04T03:02:00.000Z,0
2024-04-04T03:03:00.000Z,0
2024-04-04T03:04:01.000Z,0
2024-04-04T03:05:02.000Z,0
2024-04-04T03:06:02.000Z,0
2024-04-04T03:07:03.000Z,0
2024-04-04T03:08:04.000Z,0
2024-04-04T03:09:04.000Z,0
2024-04-04T03:10:05.000Z,0
2024-04-04T03:11:05.000Z,0
2024-04-04T03:12:06.000Z,0
2024-04-04T03:13:07.000Z,0
2024-04-04T03:14:07.000Z,0
2024-04-04T03:15:08.000Z,0
2024-04-04T03:16:09.000Z,0
2024-04-04T03:17:09.000Z,0
2024-04-04T03:18:10.000Z,0
2024-04-04T03:19:10.000Z,0
2024-04-04T03:20:11.000Z,0
2024-04-04T03:21:12.000Z,0
2024-04-04T03:22:12.000Z,0
2024-04-04T03:23:13.000Z,0
2024-04-04T03:24:14.000Z,0
2024-04-04T03:25:14.000Z,0
2024-04-04T03:26:15.000Z,0
2024-04-04T03:27:15.000Z,0
2024-04-04T03:28:16.000Z,0
2024-04-04T03:29:17.000Z,0
2024-04-04T03:30:17.000Z,0
2024-04-04T03:31:18.000Z,0
2024-04-04T03:32:18.000Z,0
2024-04-04T03:33:19.000Z,0
2024-04-04T03:34:20.000Z,0
2024-04-04T03:35:20.000Z,0
2024-04-04T03:36:21.000Z,0
2024-04-04T03:37:22.000Z,0
2024-04-04T03:38:22.000Z,0
2024-04-04T03:39:23.000Z,0
2024-04-04T03:40:23.000Z,0
2024-04-04T03:41:24.000Z,0
2024-04-04T03:42:25.000Z,0
2024-04-04T03:43:25.000Z,0
2024-04-04T03:44:26.000Z,0
2024-04-04T03:45:27.000Z,0
2024-04-04T03:46:27.000Z,0
2024-04-04T03:47:28.000Z,0
2024-04-04T03:48:28.000Z,0
2024-04-04T03:49:29.000Z,0
2024-04-04T03:50:30.000Z,0
2024-04-04T03:51:30.000Z,1
2024-04-04T03:52:31.000Z,0
2024-04-04T03:53:32.000Z,0
2024-04-04T03:54:32.000Z,0
2024-04-04T03:55:33.000Z,0
2024-04-04T03:56:33.000Z,1
2024-04-04T03:57:34.000Z,1
2024-04-04T03:58:35.000Z,0
2024-04-04T03:59:35.000Z,1
2024-04-04T04:00:36.000Z,1
2024-04-04T04:01:37.000Z,1
2024-04-04T04:02:37.000Z,1
2024-04-04T04:03:38.000Z,1
2024-04-04T04:04:38.000Z,2
2024-04-04T04:05:39.000Z,2
2024-04-04T04:06:40.000Z,3
2024-04-04T04:07:40.000Z,3
2024-04-04T04:08:41.000Z,4
2024-04-04T04:09:42.000Z,4
2024-04-04T04:10:42.000Z,5
2024-04-04T04:11:43.000Z,6
2024-04-04T04:12:43.000Z,8
2024-04-04T04:13:44.000Z,9
2024-04-04T04:14:45.000Z,11
2024-04-04T04:15:45.000Z,13
2024-04-04T04:16:46.000Z,16
2024-04-04T04:17:47.000Z,19
2024-04-04T04:18:47.000Z,23
2024-04-04T04:19:48.000Z,27
2024-04-04T04:20:48.000Z,33
2024-04-04T04:21:49.000Z,39
2024-04-04T04:22:50.000Z,46
2024-04-04T04:23:50.000Z,54
2024-04-04T04:24:51.000Z,63
2024-04-04T04:25:51.000Z,74
2024-04-04T04:26:52.000Z,86
2024-04-04T04:27:53.000Z,100
2024-04-04T04:28:53.000Z,114
2024-04-04T04:29:54.000Z,130
2024-04-04T04:30:55.000Z,147
2024-04-04T04:31:55.000Z,167
2024-04-04T04:32:56.000Z,188
2024-04-04T04:33:57.000Z,210
2024-04-04T04:34:57.000Z,234
2024-04-04T04:35:58.000Z,260
2024-04-04T04:36:58.000Z,289
2024-04-04T04:37:59.000Z,321
2024-04-04T04:39:00.000Z,354
2024-04-04T04:40:00.000Z,393
2024-04-04T04:41:01.000Z,431
2024-04-04T04:42:02.000Z,469
2024-04-04T04:43:02.000Z,508
2024-04-04T04:44:03.000Z,548
2024-04-04T04:45:04.000Z,589
2024-04-04T04:46:04.000Z,631
2024-04-04T04:47:05.000Z,676
2024-04-04T04:48:05.000Z,723
2024-04-04T04:49:06.000Z,772
2024-04-04T04:50:07.000Z,824
2024-04-04T04:51:07.000Z,875
2024-04-04T04:52:08.000Z,928
2024-04-04T04:53:09.000Z,985
2024-04-04T04:54:09.000Z,1040
2024-04-04T04:55:10.000Z,1101
2024-04-04T04:56:10.000Z,1168
2024-04-04T04:57:11.000Z,1246
2024-04-04T04:58:12.000Z,1322
2024-04-04T04:59:12.000Z,1398
2024-04-04T05:00:13.000Z,1482
2024-04-04T05:01:14.000Z,1566
2024-04-04T05:02:14.000Z,1656
2024-04-04T05:03:15.000Z,1737
2024-04-04T05:04:15.000Z,1815
2024-04-04T05:05:16.000Z,1885
2024-04-04T05:06:17.000Z,1964
2024-04-04T05:07:17.000Z,2044
2024-04-04T05:08:18.000Z,2144
2024-04-04T05:09:19.000Z,2266
2024-04-04T05:10:19.000Z,2396
2024-04-04T05:11:20.000Z,2533
2024-04-04T05:12:21.000Z,2647
2024-04-04T05:13:21.000Z,2745
2024-04-04T05:14:22.000Z,2820
2024-04-04T05:15:22.000Z,2874
2024-04-04T05:16:23.000Z,2904
2024-04-04T05:17:24.000Z,2952
2024-04-04T05:18:24.000Z,3000
2024-04-04T05:19:25.000Z,3054
2024-04-04T05:20:26.000Z,3149
2024-04-04T05:21:26.000Z,3205
2024-04-04T05:22:27.000Z,3262
2024-04-04T05:23:28.000Z,3247
2024-04-04T05:24:28.000Z,3229
2024-04-04T05:25:29.000Z,3191
2024-04-04T05:26:29.000Z,3148
2024-04-04T05:27:30.000Z,3126
2024-04-04T05:28:31.000Z,3141
2024-04-04T05:29:31.000Z,3158
2024-04-04T05:30:32.000Z,3200
2024-04-04T05:31:33.000Z,3241
2024-04-04T05:32:33.000Z,3297
2024-04-04T05:33:34.000Z,3358
2024-04-04T05:34:34.000Z,3429
2024-04-04T05:35:35.000Z,3516
2024-04-04T05:36:35.000Z,3611
2024-04-04T05:37:36.000Z,3726
2024-04-04T05:38:37.000Z,3858
2024-04-04T05:39:37.000Z,4016
2024-04-04T05:40:38.000Z,4200
2024-04-04T05:41:39.000Z,4405
2024-04-04T05:42:39.000Z,4646
2024-04-04T05:43:40.000Z,4911
2024-04-04T05:44:41.000Z,5224
2024-04-04T05:45:41.000Z,5581
2024-04-04T05:46:42.000Z,5872
2024-04-04T05:47:42.000Z,6202
2024-04-04T05:48:43.000Z,6496
2024-04-04T05:49:44.000Z,6890
2024-04-04T05:50:44.000Z,7150
2024-04-04T05:51:45.000Z,7175
2024-04-04T05:52:46.000Z,7592
2024-04-04T05:53:46.000Z,7498
2024-04-04T05:54:47.000Z,7363
2024-04-04T05:55:48.000Z,7197
2024-04-04T05:56:48.000Z,6959
2024-04-04T05:57:49.000Z,6875
2024-04-04T05:58:49.000Z,6643
2024-04-04T05:59:50.000Z,6509
2024-04-04T06:00:51.000Z,6249
2024-04-04T06:01:51.000Z,5713
2024-04-04T06:02:52.000Z,5442
2024-04-04T06:03:53.000Z,5247
2024-04-04T06:04:53.000Z,5104
2024-04-04T06:05:54.000Z,5040
2024-04-04T06:06:55.000Z,4955
2024-04-04T06:07:55.000Z,4886
2024-04-04T06:08:56.000Z,4759
2024-04-04T06:09:56.000Z,4693
2024-04-04T06:10:57.000Z,4690
2024-04-04T06:11:58.000Z,4615
2024-04-04T06:12:58.000Z,4410
2024-04-04T06:13:59.000Z,4375
2024-04-04T06:15:00.000Z,4361
2024-04-04T06:16:00.000Z,4214
2024-04-04T06:17:01.000Z,4089
2024-04-04T06:18:02.000Z,4057
2024-04-04T06:19:02.000Z,4090
2024-04-04T06:20:03.000Z,4222
2024-04-04T06:21:04.000Z,4233
2024-04-04T06:22:04.000Z,4180
2024-04-04T06:23:05.000Z,4139
2024-04-04T06:24:06.000Z,4115
2024-04-04T06:25:06.000Z,4191
2024-04-04T06:26:07.000Z,4489
2024-04-04T06:27:08.000Z,4803
2024-04-04T06:28:08.000Z,4889
2024-04-04T06:29:09.000Z,5196
2024-04-04T06:30:09.000Z,5396
2024-04-04T06:31:10.000Z,5097
2024-04-04T06:32:11.000Z,6645
2024-04-04T06:33:11.000Z,5381
2024-04-04T06:34:12.000Z,5602
2024-04-04T06:35:13.000Z,8294
2024-04-04T06:36:13.000Z,7296
2024-04-04T06:37:14.000Z,6854
2024-04-04T06:38:14.000Z,6384
2024-04-04T06:39:15.000Z,6755
2024-04-04T06:40:16.000Z,7071
2024-04-04T06:41:16.000Z,7434
2024-04-04T06:42:17.000Z,7850
2024-04-04T06:43:18.000Z,8719
2024-04-04T06:44:18.000Z,9295
2024-04-04T06:45:19.000Z,9865
2024-04-04T06:46:19.000Z,10469
2024-04-04T06:47:20.000Z,11003
2024-04-04T06:48:21.000Z,11678
2024-04-04T06:49:21.000Z,12808
2024-04-04T06:50:22.000Z,15363
2024-04-04T06:51:23.000Z,17984
2024-04-04T06:52:23.000Z,17856
2024-04-04T06:53:24.000Z,17520
2024-04-04T06:54:25.000Z,15139
2024-04-04T06:55:25.000Z,14907
2024-04-04T06:56:26.000Z,14925
2024-04-04T06:57:27.000Z,15006
2024-04-04T06:58:27.000Z,14685
2024-04-04T06:59:28.000Z,16688
2024-04-04T07:00:28.000Z,16432
2024-04-04T07:01:29.000Z,17912
2024-04-04T07:02:30.000Z,19296
2024-04-04T07:03:30.000Z,18296
2024-04-04T07:04:31.000Z,17680
2024-04-04T07:05:31.000Z,18448
2024-04-04T07:06:32.000Z,19320
2024-04-04T07:07:33.000Z,17608
2024-04-04T07:08:33.000Z,17592
2024-04-04T07:09:34.000Z,17944
2024-04-04T07:10:35.000Z,18160
2024-04-04T07:11:35.000Z,16224
2024-04-04T07:12:36.000Z,14446
2024-04-04T07:13:37.000Z,12656
2024-04-04T07:14:37.000Z,11975
2024-04-04T07:15:38.000Z,11607
2024-04-04T07:16:38.000Z,11411
2024-04-04T07:17:39.000Z,11299
2024-04-04T07:18:40.000Z,11354
2024-04-04T07:19:40.000Z,11581
2024-04-04T07:20:41.000Z,12108
2024-04-04T07:21:41.000Z,12775
2024-04-04T07:22:42.000Z,13367
2024-04-04T07:23:43.000Z,13849
2024-04-04T07:24:43.000Z,14519
2024-04-04T07:25:44.000Z,15406
2024-04-04T07:26:44.000Z,16181
2024-04-04T07:27:45.000Z,16888
2024-04-04T07:28:46.000Z,17104
2024-04-04T07:29:46.000Z,17472
2024-04-04T07:30:47.000Z,17744
2024-04-04T07:31:48.000Z,18048
2024-04-04T07:32:48.000Z,18448
2024-04-04T07:33:49.000Z,20464
2024-04-04T07:34:49.000Z,20728
2024-04-04T07:35:50.000Z,21536
2024-04-04T07:36:51.000Z,23152
2024-04-04T07:37:51.000Z,22680
2024-04-04T07:38:52.000Z,23112
2024-04-04T07:39:53.000Z,22944
2024-04-04T07:40:53.000Z,20744
2024-04-04T07:41:54.000Z,19368
2024-04-04T07:42:54.000Z,18632
2024-04-04T07:43:55.000Z,17152
2024-04-04T07:44:56.000Z,17256
2024-04-04T07:45:56.000Z,17392
2024-04-04T07:46:57.000Z,18016
2024-04-04T07:47:58.000Z,19256
2024-04-04T07:48:58.000Z,21880
2024-04-04T07:49:59.000Z,22952
2024-04-04T07:50:59.000Z,25848
2024-04-04T07:52:00.000Z,27152
2024-04-04T07:53:01.000Z,26760
2024-04-04T07:54:01.000Z,23504
2024-04-04T07:55:02.000Z,26664
2024-04-04T07:56:03.000Z,23456
2024-04-04T07:57:03.000Z,23544
2024-04-04T07:58:04.000Z,20672
2024-04-04T07:59:04.000Z,21320
2024-04-04T08:00:05.000Z,22224
2024-04-04T08:01:06.000Z,23208
2024-04-04T08:02:06.000Z,24352
2024-04-04T08:03:07.000Z,25480
2024-04-04T08:04:08.000Z,22472
2024-04-04T08:05:08.000Z,20552
2024-04-04T08:06:09.000Z,19944
2024-04-04T08:07:09.000Z,19544
2024-04-04T08:08:10.000Z,18584
2024-04-04T08:09:11.000Z,17168
2024-04-04T08:10:11.000Z,14753
2024-04-04T08:11:12.000Z,12809
2024-04-04T08:12:12.000Z,11796
2024-04-04T08:13:13.000Z,11438
2024-04-04T08:14:14.000Z,11546
2024-04-04T08:15:14.000Z,11631
2024-04-04T08:16:15.000Z,11146
2024-04-04T08:17:16.000Z,11258
2024-04-04T08:18:16.000Z,11985
2024-04-04T08:19:17.000Z,12623
2024-04-04T08:20:18.000Z,11948
2024-04-04T08:21:18.000Z,11080
2024-04-04T08:22:19.000Z,10570
2024-04-04T08:23:20.000Z,9752
2024-04-04T08:24:20.000Z,9394
2024-04-04T08:25:21.000Z,9870
2024-04-04T08:26:21.000Z,10274
2024-04-04T08:27:22.000Z,10795
2024-04-04T08:28:23.000Z,11303
2024-04-04T08:29:23.000Z,10602
2024-04-04T08:30:24.000Z,9528
2024-04-04T08:31:25.000Z,9880
2024-04-04T08:32:25.000Z,10963
2024-04-04T08:33:26.000Z,11207
2024-04-04T08:34:27.000Z,11179
2024-04-04T08:35:27.000Z,11279
2024-04-04T08:36:28.000Z,11044
2024-04-04T08:37:28.000Z,9909
2024-04-04T08:38:29.000Z,10714
2024-04-04T08:39:30.000Z,12001
2024-04-04T08:40:30.000Z,11764
2024-04-04T08:41:31.000Z,11472
2024-04-04T08:42:32.000Z,11742
2024-04-04T08:43:32.000Z,11982
2024-04-04T08:44:33.000Z,11775
2024-04-04T08:45:34.000Z,11171
2024-04-04T08:46:34.000Z,10394
2024-04-04T08:47:35.000Z,10091
2024-04-04T08:48:36.000Z,10163
2024-04-04T08:49:36.000Z,10280
2024-04-04T08:50:37.000Z,10882
2024-04-04T08:51:37.000Z,11877
2024-04-04T08:52:38.000Z,13048
2024-04-04T08:53:39.000Z,13287
2024-04-04T08:54:39.000Z,13295
2024-04-04T08:55:40.000Z,14471
2024-04-04T08:56:41.000Z,15814
2024-04-04T08:57:41.000Z,17288
2024-04-04T08:58:42.000Z,17904
2024-04-04T08:59:42.000Z,18104
2024-04-04T09:00:43.000Z,17472
2024-04-04T09:01:44.000Z,18544
2024-04-04T09:02:44.000Z,18608
2024-04-04T09:03:45.000Z,17208
2024-04-04T09:04:46.000Z,16752
2024-04-04T09:05:46.000Z,16680
2024-04-04T09:06:47.000Z,15189
2024-04-04T09:07:48.000Z,14036
2024-04-04T09:08:48.000Z,16352
2024-04-04T09:09:49.000Z,20472
2024-04-04T09:10:49.000Z,23768
2024-04-04T09:11:50.000Z,25056
2024-04-04T09:12:51.000Z,25440
2024-04-04T09:13:51.000Z,25344
2024-04-04T09:14:52.000Z,23920
2024-04-04T09:15:53.000Z,23800
2024-04-04T09:16:53.000Z,25480
2024-04-04T09:17:54.000Z,27800
2024-04-04T09:18:54.000Z,31856
2024-04-04T09:19:55.000Z,37144
2024-04-04T09:20:56.000Z,41112
2024-04-04T09:21:56.000Z,39944
2024-04-04T09:22:57.000Z,32760
2024-04-04T09:23:58.000Z,31072
2024-04-04T09:24:58.000Z,30752
2024-04-04T09:25:59.000Z,30024
2024-04-04T09:26:59.000Z,28056
2024-04-04T09:28:00.000Z,25992
2024-04-04T09:29:01.000Z,25888
2024-04-04T09:30:01.000Z,28312
2024-04-04T09:31:02.000Z,27656
2024-04-04T09:32:03.000Z,26368
2024-04-04T09:33:03.000Z,25784
2024-04-04T09:34:04.000Z,22496
2024-04-04T09:35:04.000Z,22872
2024-04-04T09:36:05.000Z,20080
2024-04-04T09:37:06.000Z,21456
2024-04-04T09:38:06.000Z,18536
2024-04-04T09:39:07.000Z,16864
2024-04-04T09:40:08.000Z,16456
2024-04-04T09:41:08.000Z,18208
2024-04-04T09:42:09.000Z,22344
2024-04-04T09:43:10.000Z,23248
2024-04-04T09:44:10.000Z,23160
2024-04-04T09:45:11.000Z,24400
2024-04-04T09:46:11.000Z,25168
2024-04-04T09:47:12.000Z,25488
2024-04-04T09:48:13.000Z,25256
2024-04-04T09:49:13.000Z,25000
2024-04-04T09:50:14.000Z,25320
2024-04-04T09:51:15.000Z,23472
2024-04-04T09:52:15.000Z,21680
2024-04-04T09:53:16.000Z,25504
2024-04-04T09:54:17.000Z,26320
2024-04-04T09:55:17.000Z,27272
2024-04-04T09:56:18.000Z,27528
2024-04-04T09:57:18.000Z,25896
2024-04-04T09:58:19.000Z,21616
2024-04-04T09:59:20.000Z,18448
2024-04-04T10:00:20.000Z,16352
2024-04-04T10:01:21.000Z,17208
2024-04-04T10:02:22.000Z,17360
2024-04-04T10:03:22.000Z,15161
2024-04-04T10:04:23.000Z,13541
2024-04-04T10:05:23.000Z,12002
2024-04-04T10:06:24.000Z,10754
2024-04-04T10:07:25.000Z,12033
2024-04-04T10:08:25.000Z,14079
2024-04-04T10:09:26.000Z,14987
2024-04-04T10:10:27.000Z,15637
2024-04-04T10:11:27.000Z,14245
2024-04-04T10:12:28.000Z,12867
2024-04-04T10:13:28.000Z,12532
2024-04-04T10:14:29.000Z,13572
2024-04-04T10:15:30.000Z,14116
2024-04-04T10:16:30.000Z,14961
2024-04-04T10:17:31.000Z,15772
2024-04-04T10:18:32.000Z,17240
2024-04-04T10:19:32.000Z,14149
2024-04-04T10:20:33.000Z,11550
2024-04-04T10:21:33.000Z,10632
2024-04-04T10:22:34.000Z,8595
2024-04-04T10:23:35.000Z,7864
2024-04-04T10:24:35.000Z,8322
2024-04-04T10:25:36.000Z,9704
2024-04-04T10:26:37.000Z,11387
2024-04-04T10:27:37.000Z,13420
2024-04-04T10:28:38.000Z,15440
2024-04-04T10:29:38.000Z,16560
2024-04-04T10:30:39.000Z,17216
2024-04-04T10:31:40.000Z,18280
2024-04-04T10:32:40.000Z,18640
2024-04-04T10:33:41.000Z,18568
2024-04-04T10:34:42.000Z,18176
2024-04-04T10:35:42.000Z,16688
2024-04-04T10:36:43.000Z,15022
2024-04-04T10:37:43.000Z,14566
2024-04-04T10:38:44.000Z,13503
2024-04-04T10:39:45.000Z,12589
2024-04-04T10:40:45.000Z,12183
2024-04-04T10:41:46.000Z,12325
2024-04-04T10:42:47.000Z,13379
2024-04-04T10:43:47.000Z,14893
2024-04-04T10:44:48.000Z,15971
2024-04-04T10:45:48.000Z,15806
2024-04-04T10:46:49.000Z,15018
2024-04-04T10:47:50.000Z,14044
2024-04-04T10:48:50.000Z,13514
2024-04-04T10:49:51.000Z,13410
2024-04-04T10:50:52.000Z,13228
2024-04-04T10:51:52.000Z,13563
2024-04-04T10:52:53.000Z,14307
2024-04-04T10:53:54.000Z,14340
2024-04-04T10:54:54.000Z,13841
2024-04-04T10:55:55.000Z,13172
2024-04-04T10:56:55.000Z,12233
2024-04-04T10:57:56.000Z,11456
2024-04-04T10:58:57.000Z,10883
2024-04-04T10:59:57.000Z,10317
2024-04-04T11:00:58.000Z,10037
2024-04-04T11:01:59.000Z,9974
2024-04-04T11:02:59.000Z,10058
2024-04-04T11:04:00.000Z,10273
2024-04-04T11:05:00.000Z,10516
2024-04-04T11:06:01.000Z,10846
2024-04-04T11:07:02.000Z,11271
2024-04-04T11:08:02.000Z,11609
2024-04-04T11:09:03.000Z,11965
2024-04-04T11:10:04.000Z,12645
2024-04-04T11:11:04.000Z,12881
2024-04-04T11:12:05.000Z,12706
2024-04-04T11:13:06.000Z,12572
2024-04-04T11:14:06.000Z,12657
2024-04-04T11:15:07.000Z,12844
2024-04-04T11:16:08.000Z,12975
2024-04-04T11:17:08.000Z,13657
2024-04-04T11:18:09.000Z,14734
2024-04-04T11:19:09.000Z,15751
2024-04-04T11:20:10.000Z,17000
2024-04-04T11:21:11.000Z,18056
2024-04-04T11:22:11.000Z,19056
2024-04-04T11:23:12.000Z,20520
2024-04-04T11:24:13.000Z,22480
2024-04-04T11:25:13.000Z,24160
2024-04-04T11:26:14.000Z,25224
2024-04-04T11:27:15.000Z,25744
2024-04-04T11:28:15.000Z,26088
2024-04-04T11:29:16.000Z,26408
2024-04-04T11:30:16.000Z,25792
2024-04-04T11:31:17.000Z,24832
2024-04-04T11:32:18.000Z,24336
2024-04-04T11:33:18.000Z,24488
2024-04-04T11:34:19.000Z,24968
2024-04-04T11:35:20.000Z,24960
2024-04-04T11:36:20.000Z,23520
2024-04-04T11:37:21.000Z,21544
2024-04-04T11:38:22.000Z,20344
2024-04-04T11:39:22.000Z,20160
2024-04-04T11:40:23.000Z,21192
2024-04-04T11:41:24.000Z,23096
2024-04-04T11:42:24.000Z,26016
2024-04-04T11:43:25.000Z,32288
2024-04-04T11:44:25.000Z,29744
2024-04-04T11:45:26.000Z,31472
2024-04-04T11:46:27.000Z,31304
2024-04-04T11:47:27.000Z,30336
2024-04-04T11:48:28.000Z,28392
2024-04-04T11:49:29.000Z,26264
2024-04-04T11:50:29.000Z,24408
2024-04-04T11:51:30.000Z,21216
2024-04-04T11:52:31.000Z,17448
2024-04-04T11:53:31.000Z,16952
2024-04-04T11:54:32.000Z,16288
2024-04-04T11:55:32.000Z,17208
2024-04-04T11:56:33.000Z,17184
2024-04-04T11:57:34.000Z,17064
2024-04-04T11:58:34.000Z,15533
2024-04-04T11:59:35.000Z,13671
2024-04-04T12:00:36.000Z,12538
2024-04-04T12:01:36.000Z,13087
2024-04-04T12:02:37.000Z,13838
2024-04-04T12:03:38.000Z,14742
2024-04-04T12:04:38.000Z,15195
2024-04-04T12:05:39.000Z,15276
2024-04-04T12:06:39.000Z,15082
2024-04-04T12:07:40.000Z,15198
2024-04-04T12:08:41.000Z,13172
2024-04-04T12:09:41.000Z,11476
2024-04-04T12:10:42.000Z,12751
2024-04-04T12:11:43.000Z,11767
2024-04-04T12:12:43.000Z,12731
2024-04-04T12:13:44.000Z,13488
2024-04-04T12:14:44.000Z,13246
2024-04-04T12:15:45.000Z,14105
2024-04-04T12:16:46.000Z,15130
2024-04-04T12:17:46.000Z,15005
2024-04-04T12:18:47.000Z,15107
2024-04-04T12:19:48.000Z,15743
2024-04-04T12:20:48.000Z,16800
2024-04-04T12:21:49.000Z,18288
2024-04-04T12:22:49.000Z,20872
2024-04-04T12:23:50.000Z,23432
2024-04-04T12:24:51.000Z,25096
2024-04-04T12:25:51.000Z,26024
2024-04-04T12:26:52.000Z,26160
2024-04-04T12:27:53.000Z,25736
2024-04-04T12:28:53.000Z,24896
2024-04-04T12:29:54.000Z,25920
2024-04-04T12:30:54.000Z,28848
2024-04-04T12:31:55.000Z,27296
2024-04-04T12:32:56.000Z,25592
2024-04-04T12:33:56.000Z,22928
2024-04-04T12:34:57.000Z,21816
2024-04-04T12:35:57.000Z,20800
2024-04-04T12:36:58.000Z,18664
2024-04-04T12:37:59.000Z,14895
2024-04-04T12:38:59.000Z,14186
2024-04-04T12:40:00.000Z,15432
2024-04-04T12:41:01.000Z,19664
2024-04-04T12:42:01.000Z,21904
2024-04-04T12:43:02.000Z,20840
2024-04-04T12:44:02.000Z,19608
2024-04-04T12:45:03.000Z,19400
2024-04-04T12:46:04.000Z,18872
2024-04-04T12:47:04.000Z,15605
2024-04-04T12:48:05.000Z,13520
2024-04-04T12:49:05.000Z,12042
2024-04-04T12:50:06.000Z,13694
2024-04-04T12:51:07.000Z,14597
2024-04-04T12:52:07.000Z,14765
2024-04-04T12:53:08.000Z,17072
2024-04-04T12:54:09.000Z,16552
2024-04-04T12:55:09.000Z,15707
2024-04-04T12:56:10.000Z,15333
2024-04-04T12:57:10.000Z,15568
2024-04-04T12:58:11.000Z,15293
2024-04-04T12:59:12.000Z,14567
2024-04-04T13:00:12.000Z,13658
2024-04-04T13:01:13.000Z,14022
2024-04-04T13:02:14.000Z,12730
2024-04-04T13:03:14.000Z,13914
2024-04-04T13:04:15.000Z,15313
2024-04-04T13:05:15.000Z,13607
2024-04-04T13:06:16.000Z,12493
2024-04-04T13:07:17.000Z,12003
2024-04-04T13:08:17.000Z,10664
2024-04-04T13:09:18.000Z,9085
2024-04-04T13:10:19.000Z,7842
2024-04-04T13:11:19.000Z,6213
2024-04-04T13:12:20.000Z,5826
2024-04-04T13:13:20.000Z,5525
2024-04-04T13:14:21.000Z,5477
2024-04-04T13:15:22.000Z,5782
2024-04-04T13:16:22.000Z,5479
2024-04-04T13:17:23.000Z,5556
2024-04-04T13:18:24.000Z,6548
2024-04-04T13:19:24.000Z,7872
2024-04-04T13:20:25.000Z,7051
2024-04-04T13:21:25.000Z,6886
2024-04-04T13:22:26.000Z,6694
2024-04-04T13:23:27.000Z,5918
2024-04-04T13:24:27.000Z,5588
2024-04-04T13:25:28.000Z,6220
2024-04-04T13:26:29.000Z,8054
2024-04-04T13:27:29.000Z,10378
2024-04-04T13:28:30.000Z,13316
2024-04-04T13:29:30.000Z,12766
2024-04-04T13:30:31.000Z,13061
2024-04-04T13:31:32.000Z,13081
2024-04-04T13:32:32.000Z,10922
2024-04-04T13:33:33.000Z,12602
2024-04-04T13:34:34.000Z,17064
2024-04-04T13:35:34.000Z,18936
2024-04-04T13:36:35.000Z,15503
2024-04-04T13:37:35.000Z,14111
2024-04-04T13:38:36.000Z,10685
2024-04-04T13:39:37.000Z,10313
2024-04-04T13:40:37.000Z,12851